sensor_id;sensor_type;location;lat;lon;timestamp;temperature;humidity
2539;DHT22;1280;49.760;9.664;2023-09-30T00:01:57;19.30;81.80
2539;DHT22;1280;49.760;9.664;2023-09-30T00:04:25;19.30;81.90
2539;DHT22;1280;49.760;9.664;2023-09-30T00:07:00;19.30;82.00
2539;DHT22;1280;49.760;9.664;2023-09-30T00:09:28;19.30;82.00
2539;DHT22;1280;49.760;9.664;2023-09-30T00:11:59;19.30;82.00
2539;DHT22;1280;49.760;9.664;2023-09-30T00:14:27;19.30;82.00
2539;DHT22;1280;49.760;9.664;2023-09-30T00:16:55;19.30;82.10
2539;DHT22;1280;49.760;9.664;2023-09-30T00:19:23;19.30;82.10
2539;DHT22;1280;49.760;9.664;2023-09-30T00:21:52;19.30;82.10
2539;DHT22;1280;49.760;9.664;2023-09-30T00:24:20;19.20;82.10
2539;DHT22;1280;49.760;9.664;2023-09-30T00:26:48;19.20;82.10
2539;DHT22;1280;49.760;9.664;2023-09-30T00:29:18;19.20;82.10
2539;DHT22;1280;49.760;9.664;2023-09-30T00:31:47;19.20;82.00
2539;DHT22;1280;49.760;9.664;2023-09-30T00:34:15;19.20;81.90
2539;DHT22;1280;49.760;9.664;2023-09-30T00:36:43;19.20;81.90
2539;DHT22;1280;49.760;9.664;2023-09-30T00:39:11;19.20;81.90
2539;DHT22;1280;49.760;9.664;2023-09-30T00:41:39;19.20;81.80
2539;DHT22;1280;49.760;9.664;2023-09-30T00:44:08;19.10;81.80
2539;DHT22;1280;49.760;9.664;2023-09-30T00:46:39;19.10;81.90
2539;DHT22;1280;49.760;9.664;2023-09-30T00:49:10;19.10;82.00
2539;DHT22;1280;49.760;9.664;2023-09-30T00:51:38;19.10;81.90
2539;DHT22;1280;49.760;9.664;2023-09-30T00:54:06;19.10;81.90
2539;DHT22;1280;49.760;9.664;2023-09-30T00:56:44;19.10;81.90
2539;DHT22;1280;49.760;9.664;2023-09-30T00:59:14;19.00;82.00
2539;DHT22;1280;49.760;9.664;2023-09-30T01:01:46;19.00;82.00
2539;DHT22;1280;49.760;9.664;2023-09-30T01:04:14;19.00;82.10
2539;DHT22;1280;49.760;9.664;2023-09-30T01:06:43;19.00;82.10
2539;DHT22;1280;49.760;9.664;2023-09-30T01:09:12;19.00;82.20
2539;DHT22;1280;49.760;9.664;2023-09-30T01:11:41;18.90;82.20
2539;DHT22;1280;49.760;9.664;2023-09-30T01:14:24;18.90;82.20
2539;DHT22;1280;49.760;9.664;2023-09-30T01:16:53;18.90;82.40
2539;DHT22;1280;49.760;9.664;2023-09-30T01:19:22;18.90;82.30
2539;DHT22;1280;49.760;9.664;2023-09-30T01:21:53;18.90;82.30
2539;DHT22;1280;49.760;9.664;2023-09-30T01:24:23;18.90;82.40
2539;DHT22;1280;49.760;9.664;2023-09-30T01:26:52;18.90;82.40
2539;DHT22;1280;49.760;9.664;2023-09-30T01:29:22;18.90;82.40
2539;DHT22;1280;49.760;9.664;2023-09-30T01:31:54;18.90;82.40
2539;DHT22;1280;49.760;9.664;2023-09-30T01:34:22;18.80;82.50
2539;DHT22;1280;49.760;9.664;2023-09-30T01:36:53;18.80;82.50
2539;DHT22;1280;49.760;9.664;2023-09-30T01:39:22;18.80;82.50
2539;DHT22;1280;49.760;9.664;2023-09-30T01:41:54;18.80;82.50
2539;DHT22;1280;49.760;9.664;2023-09-30T01:44:22;18.80;82.50
2539;DHT22;1280;49.760;9.664;2023-09-30T01:46:50;18.80;82.50
2539;DHT22;1280;49.760;9.664;2023-09-30T01:49:18;18.80;82.50
2539;DHT22;1280;49.760;9.664;2023-09-30T01:51:47;18.80;82.60
2539;DHT22;1280;49.760;9.664;2023-09-30T01:54:18;18.80;82.60
2539;DHT22;1280;49.760;9.664;2023-09-30T01:56:46;18.80;82.60
2539;DHT22;1280;49.760;9.664;2023-09-30T01:59:16;18.80;82.60
2539;DHT22;1280;49.760;9.664;2023-09-30T02:01:47;18.70;82.60
2539;DHT22;1280;49.760;9.664;2023-09-30T02:04:16;18.70;82.60
2539;DHT22;1280;49.760;9.664;2023-09-30T02:06:44;18.70;82.60
2539;DHT22;1280;49.760;9.664;2023-09-30T02:09:12;18.70;82.60
2539;DHT22;1280;49.760;9.664;2023-09-30T02:11:42;18.70;82.70
2539;DHT22;1280;49.760;9.664;2023-09-30T02:14:11;18.70;82.70
2539;DHT22;1280;49.760;9.664;2023-09-30T02:16:40;18.70;82.60
2539;DHT22;1280;49.760;9.664;2023-09-30T02:19:10;18.70;82.60
2539;DHT22;1280;49.760;9.664;2023-09-30T02:21:41;18.70;82.70
2539;DHT22;1280;49.760;9.664;2023-09-30T02:24:11;18.70;82.60
2539;DHT22;1280;49.760;9.664;2023-09-30T02:26:41;18.70;82.60
2539;DHT22;1280;49.760;9.664;2023-09-30T02:29:10;18.70;82.60
2539;DHT22;1280;49.760;9.664;2023-09-30T02:31:38;18.70;82.60
2539;DHT22;1280;49.760;9.664;2023-09-30T02:34:07;18.70;82.60
2539;DHT22;1280;49.760;9.664;2023-09-30T02:36:35;18.60;82.60
2539;DHT22;1280;49.760;9.664;2023-09-30T02:39:05;18.60;82.70
2539;DHT22;1280;49.760;9.664;2023-09-30T02:41:36;18.60;82.70
2539;DHT22;1280;49.760;9.664;2023-09-30T02:44:06;18.60;82.70
2539;DHT22;1280;49.760;9.664;2023-09-30T02:46:34;18.60;82.60
2539;DHT22;1280;49.760;9.664;2023-09-30T02:49:02;18.60;82.60
2539;DHT22;1280;49.760;9.664;2023-09-30T02:51:30;18.60;82.60
2539;DHT22;1280;49.760;9.664;2023-09-30T02:53:59;18.60;82.50
2539;DHT22;1280;49.760;9.664;2023-09-30T02:56:27;18.60;82.60
2539;DHT22;1280;49.760;9.664;2023-09-30T02:58:59;18.60;82.50
2539;DHT22;1280;49.760;9.664;2023-09-30T03:01:29;18.60;82.40
2539;DHT22;1280;49.760;9.664;2023-09-30T03:03:58;18.60;82.50
2539;DHT22;1280;49.760;9.664;2023-09-30T03:06:26;18.60;82.40
2539;DHT22;1280;49.760;9.664;2023-09-30T03:08:55;18.60;82.40
2539;DHT22;1280;49.760;9.664;2023-09-30T03:11:23;18.50;82.40
2539;DHT22;1280;49.760;9.664;2023-09-30T03:13:51;18.50;82.40
2539;DHT22;1280;49.760;9.664;2023-09-30T03:16:19;18.50;82.40
2539;DHT22;1280;49.760;9.664;2023-09-30T03:18:49;18.50;82.30
2539;DHT22;1280;49.760;9.664;2023-09-30T03:21:17;18.50;82.30
2539;DHT22;1280;49.760;9.664;2023-09-30T03:23:46;18.50;82.40
2539;DHT22;1280;49.760;9.664;2023-09-30T03:26:15;18.50;82.30
2539;DHT22;1280;49.760;9.664;2023-09-30T03:28:43;18.50;82.40
2539;DHT22;1280;49.760;9.664;2023-09-30T03:31:10;18.50;82.30
2539;DHT22;1280;49.760;9.664;2023-09-30T03:33:39;18.50;82.30
2539;DHT22;1280;49.760;9.664;2023-09-30T03:36:09;18.50;82.30
2539;DHT22;1280;49.760;9.664;2023-09-30T03:38:38;18.50;82.30
2539;DHT22;1280;49.760;9.664;2023-09-30T03:41:06;18.50;82.20
2539;DHT22;1280;49.760;9.664;2023-09-30T03:43:35;18.50;82.20
2539;DHT22;1280;49.760;9.664;2023-09-30T03:46:07;18.50;82.10
2539;DHT22;1280;49.760;9.664;2023-09-30T03:48:36;18.50;82.10
2539;DHT22;1280;49.760;9.664;2023-09-30T03:51:11;18.50;82.10
2539;DHT22;1280;49.760;9.664;2023-09-30T03:53:40;18.50;82.10
2539;DHT22;1280;49.760;9.664;2023-09-30T03:56:08;18.50;82.10
2539;DHT22;1280;49.760;9.664;2023-09-30T03:58:38;18.50;82.00
2539;DHT22;1280;49.760;9.664;2023-09-30T04:01:06;18.50;82.00
2539;DHT22;1280;49.760;9.664;2023-09-30T04:03:38;18.50;81.90
2539;DHT22;1280;49.760;9.664;2023-09-30T04:06:07;18.50;81.90
2539;DHT22;1280;49.760;9.664;2023-09-30T04:08:37;18.50;81.80
2539;DHT22;1280;49.760;9.664;2023-09-30T04:11:05;18.50;81.80
2539;DHT22;1280;49.760;9.664;2023-09-30T04:13:33;18.40;81.80
2539;DHT22;1280;49.760;9.664;2023-09-30T04:16:01;18.40;81.80
2539;DHT22;1280;49.760;9.664;2023-09-30T04:18:40;18.40;81.80
2539;DHT22;1280;49.760;9.664;2023-09-30T04:21:08;18.40;81.80
2539;DHT22;1280;49.760;9.664;2023-09-30T04:23:37;18.40;81.80
2539;DHT22;1280;49.760;9.664;2023-09-30T04:26:05;18.40;81.80
2539;DHT22;1280;49.760;9.664;2023-09-30T04:28:35;18.40;81.80
2539;DHT22;1280;49.760;9.664;2023-09-30T04:31:03;18.40;81.70
2539;DHT22;1280;49.760;9.664;2023-09-30T04:33:32;18.40;81.70
2539;DHT22;1280;49.760;9.664;2023-09-30T04:36:02;18.30;81.70
2539;DHT22;1280;49.760;9.664;2023-09-30T04:38:33;18.30;81.70
2539;DHT22;1280;49.760;9.664;2023-09-30T04:41:02;18.30;81.70
2539;DHT22;1280;49.760;9.664;2023-09-30T04:43:30;18.30;81.70
2539;DHT22;1280;49.760;9.664;2023-09-30T04:45:59;18.30;81.70
2539;DHT22;1280;49.760;9.664;2023-09-30T04:48:29;18.20;81.70
2539;DHT22;1280;49.760;9.664;2023-09-30T04:50:58;18.20;81.60
2539;DHT22;1280;49.760;9.664;2023-09-30T04:53:26;18.20;81.60
2539;DHT22;1280;49.760;9.664;2023-09-30T04:55:55;18.20;81.50
2539;DHT22;1280;49.760;9.664;2023-09-30T04:58:24;18.20;81.50
2539;DHT22;1280;49.760;9.664;2023-09-30T05:00:53;18.20;81.40
2539;DHT22;1280;49.760;9.664;2023-09-30T05:03:21;18.20;81.40
2539;DHT22;1280;49.760;9.664;2023-09-30T05:05:51;18.10;81.40
2539;DHT22;1280;49.760;9.664;2023-09-30T05:08:23;18.10;81.30
2539;DHT22;1280;49.760;9.664;2023-09-30T05:10:52;18.10;81.40
2539;DHT22;1280;49.760;9.664;2023-09-30T05:13:24;18.10;81.30
2539;DHT22;1280;49.760;9.664;2023-09-30T05:15:53;18.00;81.30
2539;DHT22;1280;49.760;9.664;2023-09-30T05:18:21;18.00;81.30
2539;DHT22;1280;49.760;9.664;2023-09-30T05:20:51;18.00;81.30
2539;DHT22;1280;49.760;9.664;2023-09-30T05:23:19;18.00;81.30
2539;DHT22;1280;49.760;9.664;2023-09-30T05:25:47;18.00;81.30
2539;DHT22;1280;49.760;9.664;2023-09-30T05:28:14;18.00;81.30
2539;DHT22;1280;49.760;9.664;2023-09-30T05:30:43;18.00;81.30
2539;DHT22;1280;49.760;9.664;2023-09-30T05:33:12;18.00;81.30
2539;DHT22;1280;49.760;9.664;2023-09-30T05:35:41;18.00;81.30
2539;DHT22;1280;49.760;9.664;2023-09-30T05:38:09;18.00;81.30
2539;DHT22;1280;49.760;9.664;2023-09-30T05:40:39;18.00;81.30
2539;DHT22;1280;49.760;9.664;2023-09-30T05:43:08;18.00;81.30
2539;DHT22;1280;49.760;9.664;2023-09-30T05:45:38;18.00;81.30
2539;DHT22;1280;49.760;9.664;2023-09-30T05:48:17;18.00;81.30
2539;DHT22;1280;49.760;9.664;2023-09-30T05:50:46;18.00;81.30
2539;DHT22;1280;49.760;9.664;2023-09-30T05:53:14;18.00;81.30
2539;DHT22;1280;49.760;9.664;2023-09-30T05:55:42;18.00;81.40
2539;DHT22;1280;49.760;9.664;2023-09-30T05:58:13;18.00;81.40
2539;DHT22;1280;49.760;9.664;2023-09-30T06:00:43;18.00;81.40
2539;DHT22;1280;49.760;9.664;2023-09-30T06:03:11;18.00;81.50
2539;DHT22;1280;49.760;9.664;2023-09-30T06:05:42;18.00;81.50
2539;DHT22;1280;49.760;9.664;2023-09-30T06:08:10;18.00;81.60
2539;DHT22;1280;49.760;9.664;2023-09-30T06:10:41;18.00;81.60
2539;DHT22;1280;49.760;9.664;2023-09-30T06:13:11;18.00;81.50
2539;DHT22;1280;49.760;9.664;2023-09-30T06:15:41;18.00;81.50
2539;DHT22;1280;49.760;9.664;2023-09-30T06:18:10;18.00;81.60
2539;DHT22;1280;49.760;9.664;2023-09-30T06:20:42;18.00;81.50
2539;DHT22;1280;49.760;9.664;2023-09-30T06:23:12;18.10;81.50
2539;DHT22;1280;49.760;9.664;2023-09-30T06:25:41;18.10;81.40
2539;DHT22;1280;49.760;9.664;2023-09-30T06:28:09;18.10;81.40
2539;DHT22;1280;49.760;9.664;2023-09-30T06:30:37;18.10;81.30
2539;DHT22;1280;49.760;9.664;2023-09-30T06:33:10;18.10;81.20
2539;DHT22;1280;49.760;9.664;2023-09-30T06:35:42;18.10;81.10
2539;DHT22;1280;49.760;9.664;2023-09-30T06:38:17;18.20;81.10
2539;DHT22;1280;49.760;9.664;2023-09-30T06:40:45;18.20;81.10
2539;DHT22;1280;49.760;9.664;2023-09-30T06:43:14;18.20;81.00
2539;DHT22;1280;49.760;9.664;2023-09-30T06:45:43;18.20;80.90
2539;DHT22;1280;49.760;9.664;2023-09-30T06:48:14;18.30;80.80
2539;DHT22;1280;49.760;9.664;2023-09-30T06:50:46;18.30;80.60
2539;DHT22;1280;49.760;9.664;2023-09-30T06:53:16;18.30;80.40
2539;DHT22;1280;49.760;9.664;2023-09-30T06:55:45;18.30;80.30
2539;DHT22;1280;49.760;9.664;2023-09-30T06:58:14;18.40;80.10
2539;DHT22;1280;49.760;9.664;2023-09-30T07:00:47;18.40;80.00
2539;DHT22;1280;49.760;9.664;2023-09-30T07:03:16;18.30;79.80
2539;DHT22;1280;49.760;9.664;2023-09-30T07:05:50;18.30;79.70
2539;DHT22;1280;49.760;9.664;2023-09-30T07:08:19;18.40;79.60
2539;DHT22;1280;49.760;9.664;2023-09-30T07:10:48;18.30;79.50
2539;DHT22;1280;49.760;9.664;2023-09-30T07:13:16;18.30;79.40
2539;DHT22;1280;49.760;9.664;2023-09-30T07:15:45;18.30;79.30
2539;DHT22;1280;49.760;9.664;2023-09-30T07:18:13;18.30;79.20
2539;DHT22;1280;49.760;9.664;2023-09-30T07:20:41;18.40;79.10
2539;DHT22;1280;49.760;9.664;2023-09-30T07:23:11;18.40;79.00
2539;DHT22;1280;49.760;9.664;2023-09-30T07:25:46;18.40;78.90
2539;DHT22;1280;49.760;9.664;2023-09-30T07:28:14;18.40;78.70
2539;DHT22;1280;49.760;9.664;2023-09-30T07:30:43;18.30;78.70
2539;DHT22;1280;49.760;9.664;2023-09-30T07:33:12;18.30;78.70
2539;DHT22;1280;49.760;9.664;2023-09-30T07:35:40;18.30;78.70
2539;DHT22;1280;49.760;9.664;2023-09-30T07:38:08;18.30;78.70
2539;DHT22;1280;49.760;9.664;2023-09-30T07:40:38;18.30;78.50
2539;DHT22;1280;49.760;9.664;2023-09-30T07:43:06;18.30;78.50
2539;DHT22;1280;49.760;9.664;2023-09-30T07:45:34;18.20;78.50
2539;DHT22;1280;49.760;9.664;2023-09-30T07:48:03;18.20;78.60
2539;DHT22;1280;49.760;9.664;2023-09-30T07:50:32;18.30;78.60
2539;DHT22;1280;49.760;9.664;2023-09-30T07:53:01;18.30;78.60
2539;DHT22;1280;49.760;9.664;2023-09-30T07:55:32;18.40;78.70
2539;DHT22;1280;49.760;9.664;2023-09-30T07:58:01;18.40;78.60
2539;DHT22;1280;49.760;9.664;2023-09-30T08:00:30;18.40;78.70
2539;DHT22;1280;49.760;9.664;2023-09-30T08:03:01;18.40;78.70
2539;DHT22;1280;49.760;9.664;2023-09-30T08:05:30;18.40;78.70
2539;DHT22;1280;49.760;9.664;2023-09-30T08:07:58;18.40;78.60
2539;DHT22;1280;49.760;9.664;2023-09-30T08:10:26;18.40;78.70
2539;DHT22;1280;49.760;9.664;2023-09-30T08:12:56;18.50;78.60
2539;DHT22;1280;49.760;9.664;2023-09-30T08:15:26;18.50;78.60
2539;DHT22;1280;49.760;9.664;2023-09-30T08:17:54;18.50;78.50
2539;DHT22;1280;49.760;9.664;2023-09-30T08:20:22;18.60;78.30
2539;DHT22;1280;49.760;9.664;2023-09-30T08:22:50;18.60;78.30
2539;DHT22;1280;49.760;9.664;2023-09-30T08:25:18;18.60;78.20
2539;DHT22;1280;49.760;9.664;2023-09-30T08:27:46;18.60;78.10
2539;DHT22;1280;49.760;9.664;2023-09-30T08:30:18;18.60;78.10
2539;DHT22;1280;49.760;9.664;2023-09-30T08:32:48;18.60;78.10
2539;DHT22;1280;49.760;9.664;2023-09-30T08:35:16;18.60;78.20
2539;DHT22;1280;49.760;9.664;2023-09-30T08:37:45;18.60;78.30
2539;DHT22;1280;49.760;9.664;2023-09-30T08:40:13;18.60;78.40
2539;DHT22;1280;49.760;9.664;2023-09-30T08:42:42;18.70;78.50
2539;DHT22;1280;49.760;9.664;2023-09-30T08:45:12;18.70;78.50
2539;DHT22;1280;49.760;9.664;2023-09-30T08:47:41;18.80;78.60
2539;DHT22;1280;49.760;9.664;2023-09-30T08:50:11;18.80;78.50
2539;DHT22;1280;49.760;9.664;2023-09-30T08:52:43;18.80;78.50
2539;DHT22;1280;49.760;9.664;2023-09-30T08:55:11;18.90;78.50
2539;DHT22;1280;49.760;9.664;2023-09-30T08:57:41;18.80;78.50
2539;DHT22;1280;49.760;9.664;2023-09-30T09:00:11;18.90;78.40
2539;DHT22;1280;49.760;9.664;2023-09-30T09:02:41;18.90;78.40
2539;DHT22;1280;49.760;9.664;2023-09-30T09:05:11;18.90;78.40
2539;DHT22;1280;49.760;9.664;2023-09-30T09:07:39;18.90;78.40
2539;DHT22;1280;49.760;9.664;2023-09-30T09:10:10;18.90;78.40
2539;DHT22;1280;49.760;9.664;2023-09-30T09:12:41;19.00;78.30
2539;DHT22;1280;49.760;9.664;2023-09-30T09:15:20;19.00;78.10
2539;DHT22;1280;49.760;9.664;2023-09-30T09:17:49;18.90;78.00
2539;DHT22;1280;49.760;9.664;2023-09-30T09:20:22;18.90;78.10
2539;DHT22;1280;49.760;9.664;2023-09-30T09:22:53;18.90;77.90
2539;DHT22;1280;49.760;9.664;2023-09-30T09:25:23;18.90;77.90
2539;DHT22;1280;49.760;9.664;2023-09-30T09:27:51;18.90;77.90
2539;DHT22;1280;49.760;9.664;2023-09-30T09:30:22;18.90;77.80
2539;DHT22;1280;49.760;9.664;2023-09-30T09:32:56;18.90;77.70
2539;DHT22;1280;49.760;9.664;2023-09-30T09:35:27;19.00;77.60
2539;DHT22;1280;49.760;9.664;2023-09-30T09:37:59;19.10;77.40
2539;DHT22;1280;49.760;9.664;2023-09-30T09:40:29;19.10;77.20
2539;DHT22;1280;49.760;9.664;2023-09-30T09:42:58;19.10;77.00
2539;DHT22;1280;49.760;9.664;2023-09-30T09:45:27;19.20;76.80
2539;DHT22;1280;49.760;9.664;2023-09-30T09:47:59;19.20;76.70
2539;DHT22;1280;49.760;9.664;2023-09-30T09:50:29;19.30;76.70
2539;DHT22;1280;49.760;9.664;2023-09-30T09:52:59;19.30;76.50
2539;DHT22;1280;49.760;9.664;2023-09-30T09:55:27;19.30;76.40
2539;DHT22;1280;49.760;9.664;2023-09-30T09:57:56;19.20;76.10
2539;DHT22;1280;49.760;9.664;2023-09-30T10:00:26;19.20;75.90
2539;DHT22;1280;49.760;9.664;2023-09-30T10:02:56;19.10;75.70
2539;DHT22;1280;49.760;9.664;2023-09-30T10:05:25;19.10;75.70
2539;DHT22;1280;49.760;9.664;2023-09-30T10:08:00;19.10;75.60
2539;DHT22;1280;49.760;9.664;2023-09-30T10:10:29;19.10;75.50
2539;DHT22;1280;49.760;9.664;2023-09-30T10:12:58;19.10;75.40
2539;DHT22;1280;49.760;9.664;2023-09-30T10:15:39;19.10;75.30
2539;DHT22;1280;49.760;9.664;2023-09-30T10:18:10;19.10;75.30
2539;DHT22;1280;49.760;9.664;2023-09-30T10:20:43;19.20;75.30
2539;DHT22;1280;49.760;9.664;2023-09-30T10:23:24;19.30;75.20
2539;DHT22;1280;49.760;9.664;2023-09-30T10:25:53;19.30;75.00
2539;DHT22;1280;49.760;9.664;2023-09-30T10:28:39;19.40;74.90
2539;DHT22;1280;49.760;9.664;2023-09-30T10:31:13;19.50;74.70
2539;DHT22;1280;49.760;9.664;2023-09-30T10:34:21;19.50;74.60
2539;DHT22;1280;49.760;9.664;2023-09-30T10:36:49;19.60;74.30
2539;DHT22;1280;49.760;9.664;2023-09-30T10:39:54;19.60;74.20
2539;DHT22;1280;49.760;9.664;2023-09-30T10:42:48;19.60;73.90
2539;DHT22;1280;49.760;9.664;2023-09-30T10:45:43;19.60;73.70
2539;DHT22;1280;49.760;9.664;2023-09-30T10:48:34;19.60;73.40
2539;DHT22;1280;49.760;9.664;2023-09-30T10:51:13;19.60;73.20
2539;DHT22;1280;49.760;9.664;2023-09-30T10:53:44;19.60;73.20
2539;DHT22;1280;49.760;9.664;2023-09-30T10:56:14;19.60;73.20
2539;DHT22;1280;49.760;9.664;2023-09-30T10:58:45;19.70;73.10
2539;DHT22;1280;49.760;9.664;2023-09-30T11:01:14;19.80;72.90
2539;DHT22;1280;49.760;9.664;2023-09-30T11:03:43;19.80;72.60
2539;DHT22;1280;49.760;9.664;2023-09-30T11:06:20;19.90;72.50
2539;DHT22;1280;49.760;9.664;2023-09-30T11:08:51;19.90;72.30
2539;DHT22;1280;49.760;9.664;2023-09-30T11:11:33;20.00;72.30
2539;DHT22;1280;49.760;9.664;2023-09-30T11:14:02;20.00;72.00
2539;DHT22;1280;49.760;9.664;2023-09-30T11:16:42;20.10;72.00
2539;DHT22;1280;49.760;9.664;2023-09-30T11:19:11;20.10;71.80
2539;DHT22;1280;49.760;9.664;2023-09-30T11:21:40;20.10;71.10
2539;DHT22;1280;49.760;9.664;2023-09-30T11:24:08;20.00;70.50
2539;DHT22;1280;49.760;9.664;2023-09-30T11:26:38;20.00;70.30
2539;DHT22;1280;49.760;9.664;2023-09-30T11:29:10;20.00;69.70
2539;DHT22;1280;49.760;9.664;2023-09-30T11:31:39;20.00;69.50
2539;DHT22;1280;49.760;9.664;2023-09-30T11:34:07;20.00;69.30
2539;DHT22;1280;49.760;9.664;2023-09-30T11:36:38;20.00;69.00
2539;DHT22;1280;49.760;9.664;2023-09-30T11:39:06;20.00;68.80
2539;DHT22;1280;49.760;9.664;2023-09-30T11:41:38;20.00;68.60
2539;DHT22;1280;49.760;9.664;2023-09-30T11:44:10;19.90;68.50
2539;DHT22;1280;49.760;9.664;2023-09-30T11:46:50;19.90;68.50
2539;DHT22;1280;49.760;9.664;2023-09-30T11:49:28;19.90;68.40
2539;DHT22;1280;49.760;9.664;2023-09-30T11:51:57;20.10;67.20
2539;DHT22;1280;49.760;9.664;2023-09-30T11:54:30;20.00;67.70
2539;DHT22;1280;49.760;9.664;2023-09-30T11:57:01;20.00;67.50
2539;DHT22;1280;49.760;9.664;2023-09-30T11:59:30;19.90;67.50
2539;DHT22;1280;49.760;9.664;2023-09-30T12:01:59;19.90;67.50
2539;DHT22;1280;49.760;9.664;2023-09-30T12:04:29;19.90;67.50
2539;DHT22;1280;49.760;9.664;2023-09-30T12:06:58;19.90;67.50
2539;DHT22;1280;49.760;9.664;2023-09-30T12:09:26;19.90;67.50
2539;DHT22;1280;49.760;9.664;2023-09-30T12:11:55;19.90;67.30
2539;DHT22;1280;49.760;9.664;2023-09-30T12:14:26;19.90;67.00
2539;DHT22;1280;49.760;9.664;2023-09-30T12:16:56;19.90;67.00
2539;DHT22;1280;49.760;9.664;2023-09-30T12:19:25;20.00;67.10
2539;DHT22;1280;49.760;9.664;2023-09-30T12:21:53;19.90;67.00
2539;DHT22;1280;49.760;9.664;2023-09-30T12:24:23;20.00;66.90
2539;DHT22;1280;49.760;9.664;2023-09-30T12:26:51;20.00;67.00
2539;DHT22;1280;49.760;9.664;2023-09-30T12:29:21;20.00;67.00
2539;DHT22;1280;49.760;9.664;2023-09-30T12:31:52;20.00;66.90
2539;DHT22;1280;49.760;9.664;2023-09-30T12:34:22;20.00;66.80
2539;DHT22;1280;49.760;9.664;2023-09-30T12:36:53;20.00;66.70
2539;DHT22;1280;49.760;9.664;2023-09-30T12:39:22;20.00;66.60
2539;DHT22;1280;49.760;9.664;2023-09-30T12:41:53;20.00;66.60
2539;DHT22;1280;49.760;9.664;2023-09-30T12:44:21;20.00;66.70
2539;DHT22;1280;49.760;9.664;2023-09-30T12:46:51;19.90;66.60
2539;DHT22;1280;49.760;9.664;2023-09-30T12:49:19;20.00;66.60
2539;DHT22;1280;49.760;9.664;2023-09-30T12:51:48;20.00;66.40
2539;DHT22;1280;49.760;9.664;2023-09-30T12:54:16;20.00;66.50
2539;DHT22;1280;49.760;9.664;2023-09-30T12:56:45;20.00;66.30
2539;DHT22;1280;49.760;9.664;2023-09-30T12:59:14;20.00;66.40
2539;DHT22;1280;49.760;9.664;2023-09-30T13:01:42;20.00;66.30
2539;DHT22;1280;49.760;9.664;2023-09-30T13:04:15;20.00;66.20
2539;DHT22;1280;49.760;9.664;2023-09-30T13:06:43;20.10;66.30
2539;DHT22;1280;49.760;9.664;2023-09-30T13:09:11;20.10;66.20
2539;DHT22;1280;49.760;9.664;2023-09-30T13:11:43;20.10;66.20
2539;DHT22;1280;49.760;9.664;2023-09-30T13:14:11;20.10;66.10
2539;DHT22;1280;49.760;9.664;2023-09-30T13:16:40;20.20;65.90
2539;DHT22;1280;49.760;9.664;2023-09-30T13:19:09;20.20;66.00
2539;DHT22;1280;49.760;9.664;2023-09-30T13:21:38;20.20;65.90
2539;DHT22;1280;49.760;9.664;2023-09-30T13:24:09;20.30;65.80
2539;DHT22;1280;49.760;9.664;2023-09-30T13:26:39;20.20;65.80
2539;DHT22;1280;49.760;9.664;2023-09-30T13:29:09;20.30;65.70
2539;DHT22;1280;49.760;9.664;2023-09-30T13:31:39;20.30;65.70
2539;DHT22;1280;49.760;9.664;2023-09-30T13:34:07;20.30;65.50
2539;DHT22;1280;49.760;9.664;2023-09-30T13:36:38;20.40;65.50
2539;DHT22;1280;49.760;9.664;2023-09-30T13:39:06;20.40;65.40
2539;DHT22;1280;49.760;9.664;2023-09-30T13:41:34;20.50;65.40
2539;DHT22;1280;49.760;9.664;2023-09-30T13:44:03;20.50;65.40
2539;DHT22;1280;49.760;9.664;2023-09-30T13:46:33;20.50;65.40
2539;DHT22;1280;49.760;9.664;2023-09-30T13:49:04;20.60;65.20
2539;DHT22;1280;49.760;9.664;2023-09-30T13:51:33;20.70;65.20
2539;DHT22;1280;49.760;9.664;2023-09-30T13:54:02;20.70;65.10
2539;DHT22;1280;49.760;9.664;2023-09-30T13:56:31;20.70;64.80
2539;DHT22;1280;49.760;9.664;2023-09-30T13:58:59;20.70;64.60
2539;DHT22;1280;49.760;9.664;2023-09-30T14:01:27;20.60;64.40
2539;DHT22;1280;49.760;9.664;2023-09-30T14:03:55;20.60;64.30
2539;DHT22;1280;49.760;9.664;2023-09-30T14:06:26;20.60;64.20
2539;DHT22;1280;49.760;9.664;2023-09-30T14:08:56;20.60;64.30
2539;DHT22;1280;49.760;9.664;2023-09-30T14:11:25;20.70;64.30
2539;DHT22;1280;49.760;9.664;2023-09-30T14:13:53;20.70;64.00
2539;DHT22;1280;49.760;9.664;2023-09-30T14:16:21;20.70;64.00
2539;DHT22;1280;49.760;9.664;2023-09-30T14:18:49;20.80;63.90
2539;DHT22;1280;49.760;9.664;2023-09-30T14:21:17;20.80;63.70
2539;DHT22;1280;49.760;9.664;2023-09-30T14:23:46;20.80;63.60
2539;DHT22;1280;49.760;9.664;2023-09-30T14:26:14;20.80;63.60
2539;DHT22;1280;49.760;9.664;2023-09-30T14:28:43;20.80;63.50
2539;DHT22;1280;49.760;9.664;2023-09-30T14:31:20;20.80;63.30
2539;DHT22;1280;49.760;9.664;2023-09-30T14:33:48;20.80;63.30
2539;DHT22;1280;49.760;9.664;2023-09-30T14:36:18;20.80;63.20
2539;DHT22;1280;49.760;9.664;2023-09-30T14:38:46;20.80;63.20
2539;DHT22;1280;49.760;9.664;2023-09-30T14:41:29;20.80;63.30
2539;DHT22;1280;49.760;9.664;2023-09-30T14:44:00;20.80;63.30
2539;DHT22;1280;49.760;9.664;2023-09-30T14:46:28;20.80;63.10
2539;DHT22;1280;49.760;9.664;2023-09-30T14:48:56;20.80;63.10
2539;DHT22;1280;49.760;9.664;2023-09-30T14:51:24;20.70;63.00
2539;DHT22;1280;49.760;9.664;2023-09-30T14:53:52;20.70;63.00
2539;DHT22;1280;49.760;9.664;2023-09-30T14:56:20;20.70;62.80
2539;DHT22;1280;49.760;9.664;2023-09-30T14:58:48;20.70;62.90
2539;DHT22;1280;49.760;9.664;2023-09-30T15:01:17;20.80;62.90
2539;DHT22;1280;49.760;9.664;2023-09-30T15:03:46;20.80;62.90
2539;DHT22;1280;49.760;9.664;2023-09-30T15:06:15;20.80;62.90
2539;DHT22;1280;49.760;9.664;2023-09-30T15:08:43;20.80;62.90
2539;DHT22;1280;49.760;9.664;2023-09-30T15:11:14;20.80;62.90
2539;DHT22;1280;49.760;9.664;2023-09-30T15:13:42;20.80;62.80
2539;DHT22;1280;49.760;9.664;2023-09-30T15:16:18;20.70;62.70
2539;DHT22;1280;49.760;9.664;2023-09-30T15:18:47;20.70;62.70
2539;DHT22;1280;49.760;9.664;2023-09-30T15:21:16;20.60;62.70
2539;DHT22;1280;49.760;9.664;2023-09-30T15:23:44;20.60;62.60
2539;DHT22;1280;49.760;9.664;2023-09-30T15:26:13;20.50;62.70
2539;DHT22;1280;49.760;9.664;2023-09-30T15:28:43;20.50;62.80
2539;DHT22;1280;49.760;9.664;2023-09-30T15:31:12;20.50;62.80
2539;DHT22;1280;49.760;9.664;2023-09-30T15:33:41;20.60;62.80
2539;DHT22;1280;49.760;9.664;2023-09-30T15:36:10;20.50;62.80
2539;DHT22;1280;49.760;9.664;2023-09-30T15:38:39;20.50;62.90
2539;DHT22;1280;49.760;9.664;2023-09-30T15:41:07;20.50;62.90
2539;DHT22;1280;49.760;9.664;2023-09-30T15:43:36;20.50;63.00
2539;DHT22;1280;49.760;9.664;2023-09-30T15:46:03;20.40;63.10
2539;DHT22;1280;49.760;9.664;2023-09-30T15:48:31;20.40;63.10
2539;DHT22;1280;49.760;9.664;2023-09-30T15:51:01;20.30;63.20
2539;DHT22;1280;49.760;9.664;2023-09-30T15:53:29;20.20;63.30
2539;DHT22;1280;49.760;9.664;2023-09-30T15:56:00;20.20;63.40
2539;DHT22;1280;49.760;9.664;2023-09-30T15:58:28;20.20;63.60
2539;DHT22;1280;49.760;9.664;2023-09-30T16:00:56;20.10;63.60
2539;DHT22;1280;49.760;9.664;2023-09-30T16:03:24;20.10;63.70
2539;DHT22;1280;49.760;9.664;2023-09-30T16:05:53;20.00;63.80
2539;DHT22;1280;49.760;9.664;2023-09-30T16:08:23;20.00;64.00
2539;DHT22;1280;49.760;9.664;2023-09-30T16:10:51;19.90;64.20
2539;DHT22;1280;49.760;9.664;2023-09-30T16:13:19;19.90;64.30
2539;DHT22;1280;49.760;9.664;2023-09-30T16:15:47;19.90;64.40
2539;DHT22;1280;49.760;9.664;2023-09-30T16:18:16;19.80;64.50
2539;DHT22;1280;49.760;9.664;2023-09-30T16:20:44;19.80;64.60